Terminal Aerodrome Forecast
Issued by NWS Bismarck, ND

Home | Current Version | Previous Version | Graphics & Text | Print | Product List | Glossary Off
Versions: 1 2 3 4 5 6 7 8 9 10 11 12 13 14 15 16 17 18 19 20 21

296
FTUS43 KBIS 270524
TAFBIS
TAF
KBIS 270524Z 2706/2806 05006KT P6SM SCT100
     FM271100 02005KT 5SM BR BKN005
     FM271400 03005KT P6SM SCT010
     FM271700 07009KT P6SM SCT035 BKN150
     FM280000 06006KT P6SM SCT050 BKN120=

USA.gov is the U.S. government's official web portal to all federal, state and local government web resources and services.